sensor_id;sensor_type;location;lat;lon;timestamp;P1;durP1;ratioP1;P2;durP2;ratioP2
17441;SDS011;8838;50.144;8.176;2023-03-01T00:01:00;15.10;;;9.37;;
17441;SDS011;8838;50.144;8.176;2023-03-01T00:03:28;19.07;;;10.20;;
17441;SDS011;8838;50.144;8.176;2023-03-01T00:05:55;16.67;;;10.40;;
17441;SDS011;8838;50.144;8.176;2023-03-01T00:08:22;19.80;;;10.40;;
17441;SDS011;8838;50.144;8.176;2023-03-01T00:10:49;16.37;;;10.37;;
17441;SDS011;8838;50.144;8.176;2023-03-01T00:13:15;15.70;;;8.70;;
17441;SDS011;8838;50.144;8.176;2023-03-01T00:15:44;14.63;;;8.80;;
17441;SDS011;8838;50.144;8.176;2023-03-01T00:18:11;15.27;;;9.50;;
17441;SDS011;8838;50.144;8.176;2023-03-01T00:20:37;16.43;;;9.50;;
17441;SDS011;8838;50.144;8.176;2023-03-01T00:23:06;17.17;;;10.40;;
17441;SDS011;8838;50.144;8.176;2023-03-01T00:25:33;17.80;;;10.53;;
17441;SDS011;8838;50.144;8.176;2023-03-01T00:28:07;19.83;;;10.60;;
17441;SDS011;8838;50.144;8.176;2023-03-01T00:30:34;16.57;;;9.77;;
17441;SDS011;8838;50.144;8.176;2023-03-01T00:33:02;19.27;;;11.47;;
17441;SDS011;8838;50.144;8.176;2023-03-01T00:35:29;19.03;;;10.93;;
17441;SDS011;8838;50.144;8.176;2023-03-01T00:37:57;18.73;;;10.90;;
17441;SDS011;8838;50.144;8.176;2023-03-01T00:40:25;19.77;;;11.40;;
17441;SDS011;8838;50.144;8.176;2023-03-01T00:42:52;18.23;;;11.00;;
17441;SDS011;8838;50.144;8.176;2023-03-01T00:45:19;19.40;;;11.37;;
17441;SDS011;8838;50.144;8.176;2023-03-01T00:47:47;16.53;;;9.53;;
17441;SDS011;8838;50.144;8.176;2023-03-01T00:50:16;14.57;;;8.97;;
17441;SDS011;8838;50.144;8.176;2023-03-01T00:52:44;17.53;;;10.10;;
17441;SDS011;8838;50.144;8.176;2023-03-01T00:55:11;14.60;;;8.60;;
17441;SDS011;8838;50.144;8.176;2023-03-01T00:57:38;14.80;;;8.63;;
17441;SDS011;8838;50.144;8.176;2023-03-01T01:00:07;12.30;;;7.67;;
17441;SDS011;8838;50.144;8.176;2023-03-01T01:02:36;12.80;;;8.10;;
17441;SDS011;8838;50.144;8.176;2023-03-01T01:05:03;15.33;;;8.50;;
17441;SDS011;8838;50.144;8.176;2023-03-01T01:07:34;13.20;;;7.53;;
17441;SDS011;8838;50.144;8.176;2023-03-01T01:10:01;16.03;;;8.13;;
17441;SDS011;8838;50.144;8.176;2023-03-01T01:12:28;14.27;;;9.07;;
17441;SDS011;8838;50.144;8.176;2023-03-01T01:14:55;17.57;;;10.20;;
17441;SDS011;8838;50.144;8.176;2023-03-01T01:17:22;15.43;;;9.30;;
17441;SDS011;8838;50.144;8.176;2023-03-01T01:19:49;16.43;;;9.90;;
17441;SDS011;8838;50.144;8.176;2023-03-01T01:22:16;16.57;;;9.63;;
17441;SDS011;8838;50.144;8.176;2023-03-01T01:24:44;16.77;;;9.60;;
17441;SDS011;8838;50.144;8.176;2023-03-01T01:27:11;18.27;;;9.03;;
17441;SDS011;8838;50.144;8.176;2023-03-01T01:29:40;14.53;;;9.03;;
17441;SDS011;8838;50.144;8.176;2023-03-01T01:32:09;16.73;;;8.90;;
17441;SDS011;8838;50.144;8.176;2023-03-01T01:34:36;15.30;;;9.23;;
17441;SDS011;8838;50.144;8.176;2023-03-01T01:37:03;15.43;;;9.20;;
17441;SDS011;8838;50.144;8.176;2023-03-01T01:39:32;15.57;;;8.63;;
17441;SDS011;8838;50.144;8.176;2023-03-01T01:42:01;13.83;;;8.50;;
17441;SDS011;8838;50.144;8.176;2023-03-01T01:44:28;16.37;;;9.87;;
17441;SDS011;8838;50.144;8.176;2023-03-01T01:46:56;16.83;;;10.00;;
17441;SDS011;8838;50.144;8.176;2023-03-01T01:49:27;13.83;;;8.87;;
17441;SDS011;8838;50.144;8.176;2023-03-01T01:52:00;13.97;;;8.53;;
17441;SDS011;8838;50.144;8.176;2023-03-01T01:54:36;13.93;;;9.27;;
17441;SDS011;8838;50.144;8.176;2023-03-01T01:57:11;19.37;;;10.17;;
17441;SDS011;8838;50.144;8.176;2023-03-01T01:59:40;17.00;;;10.87;;
17441;SDS011;8838;50.144;8.176;2023-03-01T02:02:11;18.83;;;10.50;;
17441;SDS011;8838;50.144;8.176;2023-03-01T02:04:39;18.73;;;10.80;;
17441;SDS011;8838;50.144;8.176;2023-03-01T02:07:09;19.17;;;10.73;;
17441;SDS011;8838;50.144;8.176;2023-03-01T02:09:41;16.83;;;9.53;;
17441;SDS011;8838;50.144;8.176;2023-03-01T02:12:11;15.33;;;8.83;;
17441;SDS011;8838;50.144;8.176;2023-03-01T02:14:40;14.40;;;9.10;;
17441;SDS011;8838;50.144;8.176;2023-03-01T02:17:07;13.77;;;9.30;;
17441;SDS011;8838;50.144;8.176;2023-03-01T02:19:40;16.10;;;9.50;;
17441;SDS011;8838;50.144;8.176;2023-03-01T02:22:18;19.20;;;10.50;;
17441;SDS011;8838;50.144;8.176;2023-03-01T02:24:52;18.47;;;9.80;;
17441;SDS011;8838;50.144;8.176;2023-03-01T02:27:28;16.07;;;9.63;;
17441;SDS011;8838;50.144;8.176;2023-03-01T02:30:06;16.23;;;9.70;;
17441;SDS011;8838;50.144;8.176;2023-03-01T02:32:37;16.53;;;9.77;;
17441;SDS011;8838;50.144;8.176;2023-03-01T02:35:06;17.67;;;10.97;;
17441;SDS011;8838;50.144;8.176;2023-03-01T02:37:36;16.77;;;10.00;;
17441;SDS011;8838;50.144;8.176;2023-03-01T02:40:05;17.57;;;10.67;;
17441;SDS011;8838;50.144;8.176;2023-03-01T02:42:37;19.70;;;11.13;;
17441;SDS011;8838;50.144;8.176;2023-03-01T02:45:13;17.20;;;9.90;;
17441;SDS011;8838;50.144;8.176;2023-03-01T02:47:40;16.17;;;10.03;;
17441;SDS011;8838;50.144;8.176;2023-03-01T02:50:12;15.67;;;10.07;;
17441;SDS011;8838;50.144;8.176;2023-03-01T02:52:49;14.93;;;9.40;;
17441;SDS011;8838;50.144;8.176;2023-03-01T02:55:28;14.37;;;9.73;;
17441;SDS011;8838;50.144;8.176;2023-03-01T02:57:55;17.53;;;9.50;;
17441;SDS011;8838;50.144;8.176;2023-03-01T03:00:24;18.63;;;9.90;;
17441;SDS011;8838;50.144;8.176;2023-03-01T03:02:54;16.53;;;10.83;;
17441;SDS011;8838;50.144;8.176;2023-03-01T03:05:23;20.23;;;10.87;;
17441;SDS011;8838;50.144;8.176;2023-03-01T03:07:52;19.60;;;11.30;;
17441;SDS011;8838;50.144;8.176;2023-03-01T03:10:20;16.40;;;10.70;;
17441;SDS011;8838;50.144;8.176;2023-03-01T03:12:49;15.93;;;10.27;;
17441;SDS011;8838;50.144;8.176;2023-03-01T03:15:17;17.07;;;9.97;;
17441;SDS011;8838;50.144;8.176;2023-03-01T03:17:46;19.53;;;10.57;;
17441;SDS011;8838;50.144;8.176;2023-03-01T03:20:15;16.93;;;10.50;;
17441;SDS011;8838;50.144;8.176;2023-03-01T03:22:44;17.33;;;9.97;;
17441;SDS011;8838;50.144;8.176;2023-03-01T03:25:11;15.07;;;10.07;;
17441;SDS011;8838;50.144;8.176;2023-03-01T03:27:39;16.90;;;10.70;;
17441;SDS011;8838;50.144;8.176;2023-03-01T03:30:09;18.43;;;10.30;;
17441;SDS011;8838;50.144;8.176;2023-03-01T03:32:38;17.30;;;10.93;;
17441;SDS011;8838;50.144;8.176;2023-03-01T03:35:09;17.93;;;11.07;;
17441;SDS011;8838;50.144;8.176;2023-03-01T03:37:36;20.20;;;11.37;;
17441;SDS011;8838;50.144;8.176;2023-03-01T03:40:21;19.40;;;11.83;;
17441;SDS011;8838;50.144;8.176;2023-03-01T03:42:48;18.70;;;10.87;;
17441;SDS011;8838;50.144;8.176;2023-03-01T03:45:15;17.70;;;11.13;;
17441;SDS011;8838;50.144;8.176;2023-03-01T03:47:42;19.47;;;11.33;;
17441;SDS011;8838;50.144;8.176;2023-03-01T03:50:11;19.43;;;11.10;;
17441;SDS011;8838;50.144;8.176;2023-03-01T03:52:40;18.40;;;11.57;;
17441;SDS011;8838;50.144;8.176;2023-03-01T03:55:08;17.07;;;10.77;;
17441;SDS011;8838;50.144;8.176;2023-03-01T03:57:36;15.20;;;9.80;;
17441;SDS011;8838;50.144;8.176;2023-03-01T04:00:11;16.83;;;10.40;;
17441;SDS011;8838;50.144;8.176;2023-03-01T04:02:39;16.00;;;10.50;;
17441;SDS011;8838;50.144;8.176;2023-03-01T04:05:06;17.93;;;10.53;;
17441;SDS011;8838;50.144;8.176;2023-03-01T04:07:36;20.27;;;10.90;;
17441;SDS011;8838;50.144;8.176;2023-03-01T04:10:05;17.87;;;11.10;;
17441;SDS011;8838;50.144;8.176;2023-03-01T04:12:35;18.80;;;11.47;;
17441;SDS011;8838;50.144;8.176;2023-03-01T04:15:03;19.90;;;11.67;;
17441;SDS011;8838;50.144;8.176;2023-03-01T04:17:38;20.40;;;12.90;;
17441;SDS011;8838;50.144;8.176;2023-03-01T04:20:05;21.53;;;12.30;;
17441;SDS011;8838;50.144;8.176;2023-03-01T04:22:37;17.97;;;11.63;;
17441;SDS011;8838;50.144;8.176;2023-03-01T04:25:06;16.13;;;10.13;;
17441;SDS011;8838;50.144;8.176;2023-03-01T04:27:39;16.70;;;9.80;;
17441;SDS011;8838;50.144;8.176;2023-03-01T04:30:07;17.23;;;10.40;;
17441;SDS011;8838;50.144;8.176;2023-03-01T04:32:35;17.17;;;10.63;;
17441;SDS011;8838;50.144;8.176;2023-03-01T04:35:02;19.47;;;10.13;;
17441;SDS011;8838;50.144;8.176;2023-03-01T04:37:29;18.23;;;10.63;;
17441;SDS011;8838;50.144;8.176;2023-03-01T04:39:57;26.53;;;13.50;;
17441;SDS011;8838;50.144;8.176;2023-03-01T04:42:24;24.63;;;14.00;;
17441;SDS011;8838;50.144;8.176;2023-03-01T04:44:51;26.77;;;14.83;;
17441;SDS011;8838;50.144;8.176;2023-03-01T04:47:18;19.43;;;11.97;;
17441;SDS011;8838;50.144;8.176;2023-03-01T04:49:45;21.40;;;11.67;;
17441;SDS011;8838;50.144;8.176;2023-03-01T04:52:12;18.00;;;10.57;;
17441;SDS011;8838;50.144;8.176;2023-03-01T04:54:39;33.20;;;12.13;;
17441;SDS011;8838;50.144;8.176;2023-03-01T04:57:07;16.37;;;10.70;;
17441;SDS011;8838;50.144;8.176;2023-03-01T04:59:34;17.63;;;10.57;;
17441;SDS011;8838;50.144;8.176;2023-03-01T05:02:01;18.70;;;11.53;;
17441;SDS011;8838;50.144;8.176;2023-03-01T05:04:30;20.70;;;11.57;;
17441;SDS011;8838;50.144;8.176;2023-03-01T05:06:57;24.07;;;14.60;;
17441;SDS011;8838;50.144;8.176;2023-03-01T05:09:24;30.83;;;17.20;;
17441;SDS011;8838;50.144;8.176;2023-03-01T05:11:51;29.60;;;17.50;;
17441;SDS011;8838;50.144;8.176;2023-03-01T05:14:19;26.63;;;16.27;;
17441;SDS011;8838;50.144;8.176;2023-03-01T05:16:46;30.07;;;17.10;;
17441;SDS011;8838;50.144;8.176;2023-03-01T05:19:13;28.00;;;16.80;;
17441;SDS011;8838;50.144;8.176;2023-03-01T05:21:41;29.50;;;17.00;;
17441;SDS011;8838;50.144;8.176;2023-03-01T05:24:22;26.80;;;15.77;;
17441;SDS011;8838;50.144;8.176;2023-03-01T05:26:49;28.13;;;16.53;;
17441;SDS011;8838;50.144;8.176;2023-03-01T05:29:17;30.57;;;17.17;;
17441;SDS011;8838;50.144;8.176;2023-03-01T05:31:50;28.23;;;17.60;;
17441;SDS011;8838;50.144;8.176;2023-03-01T05:34:18;28.53;;;16.97;;
17441;SDS011;8838;50.144;8.176;2023-03-01T05:36:47;29.80;;;16.80;;
17441;SDS011;8838;50.144;8.176;2023-03-01T05:39:16;30.97;;;17.67;;
17441;SDS011;8838;50.144;8.176;2023-03-01T05:41:43;31.50;;;18.13;;
17441;SDS011;8838;50.144;8.176;2023-03-01T05:44:10;30.67;;;17.90;;
17441;SDS011;8838;50.144;8.176;2023-03-01T05:46:39;32.60;;;18.27;;
17441;SDS011;8838;50.144;8.176;2023-03-01T05:49:06;30.57;;;18.27;;
17441;SDS011;8838;50.144;8.176;2023-03-01T05:51:32;31.40;;;18.47;;
17441;SDS011;8838;50.144;8.176;2023-03-01T05:54:00;31.70;;;17.47;;
17441;SDS011;8838;50.144;8.176;2023-03-01T05:56:27;32.10;;;17.87;;
17441;SDS011;8838;50.144;8.176;2023-03-01T05:58:54;30.93;;;18.23;;
17441;SDS011;8838;50.144;8.176;2023-03-01T06:01:21;29.37;;;16.70;;
17441;SDS011;8838;50.144;8.176;2023-03-01T06:03:49;29.13;;;16.80;;
17441;SDS011;8838;50.144;8.176;2023-03-01T06:06:16;30.53;;;17.00;;
17441;SDS011;8838;50.144;8.176;2023-03-01T06:08:43;31.53;;;16.80;;
17441;SDS011;8838;50.144;8.176;2023-03-01T06:11:10;32.60;;;17.40;;
17441;SDS011;8838;50.144;8.176;2023-03-01T06:13:36;33.40;;;17.00;;
17441;SDS011;8838;50.144;8.176;2023-03-01T06:16:04;31.20;;;16.80;;
17441;SDS011;8838;50.144;8.176;2023-03-01T06:18:31;29.03;;;16.70;;
17441;SDS011;8838;50.144;8.176;2023-03-01T06:21:00;29.93;;;16.87;;
17441;SDS011;8838;50.144;8.176;2023-03-01T06:23:26;27.57;;;16.43;;
17441;SDS011;8838;50.144;8.176;2023-03-01T06:25:53;28.03;;;16.13;;
17441;SDS011;8838;50.144;8.176;2023-03-01T06:28:20;28.53;;;17.00;;
17441;SDS011;8838;50.144;8.176;2023-03-01T06:30:47;26.93;;;16.03;;
17441;SDS011;8838;50.144;8.176;2023-03-01T06:33:16;27.90;;;15.97;;
17441;SDS011;8838;50.144;8.176;2023-03-01T06:35:45;29.90;;;17.17;;
17441;SDS011;8838;50.144;8.176;2023-03-01T06:38:13;27.30;;;15.77;;
17441;SDS011;8838;50.144;8.176;2023-03-01T06:40:42;29.87;;;15.73;;
17441;SDS011;8838;50.144;8.176;2023-03-01T06:43:09;27.90;;;15.97;;
17441;SDS011;8838;50.144;8.176;2023-03-01T06:45:36;26.53;;;16.17;;
17441;SDS011;8838;50.144;8.176;2023-03-01T06:48:03;28.23;;;16.10;;
17441;SDS011;8838;50.144;8.176;2023-03-01T06:50:33;31.30;;;17.07;;
17441;SDS011;8838;50.144;8.176;2023-03-01T06:53:01;29.97;;;16.93;;
17441;SDS011;8838;50.144;8.176;2023-03-01T06:55:29;27.80;;;17.47;;
17441;SDS011;8838;50.144;8.176;2023-03-01T06:57:57;27.80;;;16.80;;
17441;SDS011;8838;50.144;8.176;2023-03-01T07:00:27;30.17;;;17.90;;
17441;SDS011;8838;50.144;8.176;2023-03-01T07:02:54;26.37;;;16.30;;
17441;SDS011;8838;50.144;8.176;2023-03-01T07:05:23;27.27;;;16.23;;
17441;SDS011;8838;50.144;8.176;2023-03-01T07:07:53;31.23;;;16.13;;
17441;SDS011;8838;50.144;8.176;2023-03-01T07:10:21;24.33;;;14.90;;
17441;SDS011;8838;50.144;8.176;2023-03-01T07:12:49;28.93;;;16.70;;
17441;SDS011;8838;50.144;8.176;2023-03-01T07:15:16;28.83;;;16.43;;
17441;SDS011;8838;50.144;8.176;2023-03-01T07:17:43;27.90;;;16.30;;
17441;SDS011;8838;50.144;8.176;2023-03-01T07:20:12;28.10;;;16.20;;
17441;SDS011;8838;50.144;8.176;2023-03-01T07:22:40;30.40;;;15.50;;
17441;SDS011;8838;50.144;8.176;2023-03-01T07:25:08;27.20;;;16.07;;
17441;SDS011;8838;50.144;8.176;2023-03-01T07:27:35;31.57;;;17.23;;
17441;SDS011;8838;50.144;8.176;2023-03-01T07:30:03;31.43;;;18.27;;
17441;SDS011;8838;50.144;8.176;2023-03-01T07:32:31;28.30;;;17.17;;
17441;SDS011;8838;50.144;8.176;2023-03-01T07:34:58;28.70;;;16.47;;
17441;SDS011;8838;50.144;8.176;2023-03-01T07:37:24;29.17;;;15.73;;
17441;SDS011;8838;50.144;8.176;2023-03-01T07:39:51;25.13;;;15.17;;
17441;SDS011;8838;50.144;8.176;2023-03-01T07:42:18;27.67;;;16.13;;
17441;SDS011;8838;50.144;8.176;2023-03-01T07:44:45;25.07;;;15.07;;
17441;SDS011;8838;50.144;8.176;2023-03-01T07:47:13;22.70;;;13.77;;
17441;SDS011;8838;50.144;8.176;2023-03-01T07:49:40;24.07;;;14.37;;
17441;SDS011;8838;50.144;8.176;2023-03-01T07:52:07;21.97;;;14.27;;
17441;SDS011;8838;50.144;8.176;2023-03-01T07:54:36;23.90;;;13.73;;
17441;SDS011;8838;50.144;8.176;2023-03-01T07:57:02;23.73;;;14.47;;
17441;SDS011;8838;50.144;8.176;2023-03-01T07:59:30;21.30;;;14.53;;
17441;SDS011;8838;50.144;8.176;2023-03-01T08:01:57;20.30;;;13.60;;
17441;SDS011;8838;50.144;8.176;2023-03-01T08:04:25;22.70;;;13.60;;
17441;SDS011;8838;50.144;8.176;2023-03-01T08:06:53;19.20;;;13.40;;
17441;SDS011;8838;50.144;8.176;2023-03-01T08:09:20;20.67;;;13.10;;
17441;SDS011;8838;50.144;8.176;2023-03-01T08:11:47;21.43;;;14.40;;
17441;SDS011;8838;50.144;8.176;2023-03-01T08:14:14;19.07;;;13.37;;
17441;SDS011;8838;50.144;8.176;2023-03-01T08:16:40;18.33;;;12.80;;
17441;SDS011;8838;50.144;8.176;2023-03-01T08:19:08;19.07;;;12.83;;
17441;SDS011;8838;50.144;8.176;2023-03-01T08:21:38;20.73;;;12.40;;
17441;SDS011;8838;50.144;8.176;2023-03-01T08:24:05;18.43;;;12.73;;
17441;SDS011;8838;50.144;8.176;2023-03-01T08:26:35;18.20;;;12.37;;
17441;SDS011;8838;50.144;8.176;2023-03-01T08:29:02;18.07;;;12.03;;
17441;SDS011;8838;50.144;8.176;2023-03-01T08:31:30;19.87;;;12.27;;
17441;SDS011;8838;50.144;8.176;2023-03-01T08:34:03;19.63;;;12.03;;
17441;SDS011;8838;50.144;8.176;2023-03-01T08:36:32;17.70;;;12.10;;
17441;SDS011;8838;50.144;8.176;2023-03-01T08:39:03;18.77;;;11.97;;
17441;SDS011;8838;50.144;8.176;2023-03-01T08:41:31;17.38;;;11.82;;
17441;SDS011;8838;50.144;8.176;2023-03-01T08:43:57;18.87;;;12.53;;
17441;SDS011;8838;50.144;8.176;2023-03-01T08:46:24;18.63;;;12.02;;
17441;SDS011;8838;50.144;8.176;2023-03-01T08:48:52;20.02;;;12.05;;
17441;SDS011;8838;50.144;8.176;2023-03-01T08:51:19;18.00;;;12.02;;
17441;SDS011;8838;50.144;8.176;2023-03-01T08:53:46;17.77;;;12.70;;
17441;SDS011;8838;50.144;8.176;2023-03-01T08:56:15;19.45;;;13.18;;
17441;SDS011;8838;50.144;8.176;2023-03-01T08:58:43;18.87;;;12.47;;
17441;SDS011;8838;50.144;8.176;2023-03-01T09:01:11;17.73;;;12.68;;
17441;SDS011;8838;50.144;8.176;2023-03-01T09:03:39;19.90;;;12.30;;
17441;SDS011;8838;50.144;8.176;2023-03-01T09:06:07;19.20;;;12.25;;
17441;SDS011;8838;50.144;8.176;2023-03-01T09:08:34;18.67;;;12.32;;
17441;SDS011;8838;50.144;8.176;2023-03-01T09:11:01;20.48;;;12.82;;
17441;SDS011;8838;50.144;8.176;2023-03-01T09:13:30;16.63;;;12.38;;
17441;SDS011;8838;50.144;8.176;2023-03-01T09:15:57;17.75;;;12.30;;
17441;SDS011;8838;50.144;8.176;2023-03-01T09:18:23;17.80;;;12.50;;
17441;SDS011;8838;50.144;8.176;2023-03-01T09:20:50;19.08;;;13.00;;
17441;SDS011;8838;50.144;8.176;2023-03-01T09:23:19;21.05;;;12.40;;
17441;SDS011;8838;50.144;8.176;2023-03-01T09:25:46;18.05;;;12.82;;
17441;SDS011;8838;50.144;8.176;2023-03-01T09:28:13;18.90;;;12.43;;
17441;SDS011;8838;50.144;8.176;2023-03-01T09:30:41;17.48;;;13.13;;
17441;SDS011;8838;50.144;8.176;2023-03-01T09:33:08;20.83;;;12.55;;
17441;SDS011;8838;50.144;8.176;2023-03-01T09:35:39;18.13;;;12.38;;
17441;SDS011;8838;50.144;8.176;2023-03-01T09:38:11;18.33;;;12.52;;
17441;SDS011;8838;50.144;8.176;2023-03-01T09:40:41;19.63;;;12.90;;
17441;SDS011;8838;50.144;8.176;2023-03-01T09:43:13;18.17;;;13.13;;
17441;SDS011;8838;50.144;8.176;2023-03-01T09:45:47;16.48;;;11.80;;
17441;SDS011;8838;50.144;8.176;2023-03-01T09:48:16;17.02;;;12.35;;
17441;SDS011;8838;50.144;8.176;2023-03-01T09:50:47;17.92;;;12.77;;
17441;SDS011;8838;50.144;8.176;2023-03-01T09:53:15;19.35;;;12.27;;
17441;SDS011;8838;50.144;8.176;2023-03-01T09:55:44;20.08;;;12.13;;
17441;SDS011;8838;50.144;8.176;2023-03-01T10:01:10;16.00;;;11.90;;
17441;SDS011;8838;50.144;8.176;2023-03-01T10:04:00;19.50;;;12.40;;
17441;SDS011;8838;50.144;8.176;2023-03-01T10:06:35;16.58;;;12.38;;
17441;SDS011;8838;50.144;8.176;2023-03-01T10:09:02;18.20;;;11.88;;
17441;SDS011;8838;50.144;8.176;2023-03-01T10:11:35;17.70;;;12.50;;
17441;SDS011;8838;50.144;8.176;2023-03-01T10:14:05;20.42;;;12.60;;
17441;SDS011;8838;50.144;8.176;2023-03-01T10:16:42;16.73;;;11.93;;
17441;SDS011;8838;50.144;8.176;2023-03-01T10:19:15;19.05;;;12.88;;
17441;SDS011;8838;50.144;8.176;2023-03-01T10:21:53;18.77;;;12.73;;
17441;SDS011;8838;50.144;8.176;2023-03-01T10:24:25;16.10;;;11.85;;
17441;SDS011;8838;50.144;8.176;2023-03-01T10:26:58;18.20;;;12.20;;
17441;SDS011;8838;50.144;8.176;2023-03-01T10:29:31;19.90;;;12.48;;
17441;SDS011;8838;50.144;8.176;2023-03-01T10:32:05;18.73;;;12.77;;
17441;SDS011;8838;50.144;8.176;2023-03-01T10:34:33;17.38;;;12.75;;
17441;SDS011;8838;50.144;8.176;2023-03-01T10:37:04;19.55;;;13.32;;
17441;SDS011;8838;50.144;8.176;2023-03-01T10:39:36;15.95;;;12.45;;
17441;SDS011;8838;50.144;8.176;2023-03-01T10:42:22;22.42;;;12.82;;
17441;SDS011;8838;50.144;8.176;2023-03-01T10:44:53;17.52;;;12.27;;
17441;SDS011;8838;50.144;8.176;2023-03-01T10:47:22;20.17;;;13.02;;
17441;SDS011;8838;50.144;8.176;2023-03-01T10:49:58;18.80;;;12.88;;
17441;SDS011;8838;50.144;8.176;2023-03-01T10:52:29;18.60;;;12.60;;
17441;SDS011;8838;50.144;8.176;2023-03-01T10:54:58;18.52;;;12.80;;
17441;SDS011;8838;50.144;8.176;2023-03-01T10:57:37;15.90;;;12.18;;
17441;SDS011;8838;50.144;8.176;2023-03-01T11:00:17;16.65;;;12.38;;
17441;SDS011;8838;50.144;8.176;2023-03-01T11:03:03;18.92;;;12.43;;
17441;SDS011;8838;50.144;8.176;2023-03-01T11:05:37;18.98;;;12.77;;
17441;SDS011;8838;50.144;8.176;2023-03-01T11:08:28;18.33;;;13.32;;
17441;SDS011;8838;50.144;8.176;2023-03-01T11:13:47;20.50;;;12.75;;
17441;SDS011;8838;50.144;8.176;2023-03-01T11:16:22;15.90;;;11.57;;
17441;SDS011;8838;50.144;8.176;2023-03-01T11:19:01;20.70;;;12.93;;
17441;SDS011;8838;50.144;8.176;2023-03-01T11:21:43;18.08;;;12.25;;
17441;SDS011;8838;50.144;8.176;2023-03-01T11:24:16;16.48;;;11.93;;
17441;SDS011;8838;50.144;8.176;2023-03-01T11:26:45;17.13;;;11.43;;
17441;SDS011;8838;50.144;8.176;2023-03-01T11:29:17;17.98;;;11.75;;
17441;SDS011;8838;50.144;8.176;2023-03-01T11:31:54;16.83;;;11.38;;
17441;SDS011;8838;50.144;8.176;2023-03-01T11:34:33;17.50;;;11.52;;
17441;SDS011;8838;50.144;8.176;2023-03-01T11:37:09;15.05;;;11.35;;
17441;SDS011;8838;50.144;8.176;2023-03-01T11:39:43;22.00;;;11.73;;
17441;SDS011;8838;50.144;8.176;2023-03-01T11:42:17;15.80;;;10.45;;
17441;SDS011;8838;50.144;8.176;2023-03-01T11:44:47;17.52;;;11.35;;
17441;SDS011;8838;50.144;8.176;2023-03-01T11:47:21;16.67;;;10.70;;
17441;SDS011;8838;50.144;8.176;2023-03-01T11:50:07;21.08;;;11.02;;
17441;SDS011;8838;50.144;8.176;2023-03-01T11:52:55;15.82;;;11.23;;
17441;SDS011;8838;50.144;8.176;2023-03-01T11:55:47;17.00;;;10.27;;
17441;SDS011;8838;50.144;8.176;2023-03-01T11:58:33;13.40;;;10.02;;
17441;SDS011;8838;50.144;8.176;2023-03-01T12:01:18;15.00;;;10.35;;
17441;SDS011;8838;50.144;8.176;2023-03-01T12:03:59;14.35;;;10.35;;
17441;SDS011;8838;50.144;8.176;2023-03-01T12:06:52;13.77;;;9.50;;
17441;SDS011;8838;50.144;8.176;2023-03-01T12:12:25;18.92;;;10.18;;
17441;SDS011;8838;50.144;8.176;2023-03-01T12:18:08;18.07;;;10.57;;
17441;SDS011;8838;50.144;8.176;2023-03-01T12:20:54;16.23;;;10.87;;
17441;SDS011;8838;50.144;8.176;2023-03-01T12:23:47;17.27;;;10.60;;
17441;SDS011;8838;50.144;8.176;2023-03-01T12:26:30;14.23;;;9.30;;
17441;SDS011;8838;50.144;8.176;2023-03-01T12:29:16;15.93;;;9.30;;
17441;SDS011;8838;50.144;8.176;2023-03-01T12:34:54;12.97;;;8.57;;
17441;SDS011;8838;50.144;8.176;2023-03-01T12:37:34;16.27;;;9.40;;
17441;SDS011;8838;50.144;8.176;2023-03-01T12:40:19;15.20;;;8.97;;
17441;SDS011;8838;50.144;8.176;2023-03-01T12:42:56;15.87;;;8.70;;
17441;SDS011;8838;50.144;8.176;2023-03-01T12:45:41;15.07;;;7.87;;
17441;SDS011;8838;50.144;8.176;2023-03-01T12:48:20;16.47;;;9.77;;
17441;SDS011;8838;50.144;8.176;2023-03-01T12:51:03;13.73;;;8.83;;
17441;SDS011;8838;50.144;8.176;2023-03-01T12:53:36;17.50;;;9.03;;
17441;SDS011;8838;50.144;8.176;2023-03-01T12:56:08;12.20;;;8.07;;
17441;SDS011;8838;50.144;8.176;2023-03-01T12:58:39;14.60;;;8.80;;
17441;SDS011;8838;50.144;8.176;2023-03-01T13:01:18;14.07;;;8.77;;
17441;SDS011;8838;50.144;8.176;2023-03-01T13:06:50;11.73;;;8.00;;
17441;SDS011;8838;50.144;8.176;2023-03-01T13:09:30;14.03;;;7.90;;
17441;SDS011;8838;50.144;8.176;2023-03-01T13:12:04;16.40;;;8.73;;
17441;SDS011;8838;50.144;8.176;2023-03-01T13:15:24;12.23;;;7.73;;
17441;SDS011;8838;50.144;8.176;2023-03-01T13:17:52;13.60;;;8.27;;
17441;SDS011;8838;50.144;8.176;2023-03-01T13:20:22;14.17;;;9.40;;
17441;SDS011;8838;50.144;8.176;2023-03-01T13:22:59;15.70;;;9.50;;
17441;SDS011;8838;50.144;8.176;2023-03-01T13:25:28;13.80;;;8.37;;
17441;SDS011;8838;50.144;8.176;2023-03-01T13:28:32;13.13;;;7.97;;
17441;SDS011;8838;50.144;8.176;2023-03-01T13:31:04;14.97;;;9.67;;
17441;SDS011;8838;50.144;8.176;2023-03-01T13:33:44;15.97;;;9.70;;
17441;SDS011;8838;50.144;8.176;2023-03-01T13:39:27;16.67;;;9.57;;
17441;SDS011;8838;50.144;8.176;2023-03-01T13:41:57;14.10;;;8.67;;
17441;SDS011;8838;50.144;8.176;2023-03-01T13:44:28;17.97;;;9.30;;
17441;SDS011;8838;50.144;8.176;2023-03-01T13:46:58;14.97;;;8.40;;
17441;SDS011;8838;50.144;8.176;2023-03-01T13:49:28;17.80;;;8.83;;
17441;SDS011;8838;50.144;8.176;2023-03-01T13:52:02;13.90;;;8.63;;
17441;SDS011;8838;50.144;8.176;2023-03-01T13:54:29;15.57;;;8.70;;
17441;SDS011;8838;50.144;8.176;2023-03-01T13:56:59;20.90;;;9.30;;
17441;SDS011;8838;50.144;8.176;2023-03-01T13:59:28;14.40;;;9.00;;
17441;SDS011;8838;50.144;8.176;2023-03-01T14:01:56;20.93;;;10.83;;
17441;SDS011;8838;50.144;8.176;2023-03-01T14:04:25;15.90;;;9.67;;
17441;SDS011;8838;50.144;8.176;2023-03-01T14:07:08;18.10;;;9.53;;
17441;SDS011;8838;50.144;8.176;2023-03-01T14:09:37;12.83;;;8.30;;
17441;SDS011;8838;50.144;8.176;2023-03-01T14:12:22;13.43;;;8.10;;
17441;SDS011;8838;50.144;8.176;2023-03-01T14:15:00;13.45;;;9.02;;
17441;SDS011;8838;50.144;8.176;2023-03-01T14:17:33;18.57;;;9.17;;
17441;SDS011;8838;50.144;8.176;2023-03-01T14:20:17;14.60;;;7.73;;
17441;SDS011;8838;50.144;8.176;2023-03-01T14:22:46;14.30;;;7.80;;
17441;SDS011;8838;50.144;8.176;2023-03-01T14:25:20;19.80;;;8.97;;
17441;SDS011;8838;50.144;8.176;2023-03-01T14:27:54;16.60;;;8.93;;
17441;SDS011;8838;50.144;8.176;2023-03-01T14:30:30;14.77;;;8.93;;
17441;SDS011;8838;50.144;8.176;2023-03-01T14:33:00;19.50;;;10.10;;
17441;SDS011;8838;50.144;8.176;2023-03-01T14:35:29;13.47;;;7.93;;
17441;SDS011;8838;50.144;8.176;2023-03-01T14:37:57;14.17;;;8.50;;
17441;SDS011;8838;50.144;8.176;2023-03-01T14:40:26;13.73;;;8.80;;
17441;SDS011;8838;50.144;8.176;2023-03-01T14:42:54;12.47;;;8.77;;
17441;SDS011;8838;50.144;8.176;2023-03-01T14:45:25;15.40;;;9.07;;
17441;SDS011;8838;50.144;8.176;2023-03-01T14:47:54;13.40;;;8.40;;
17441;SDS011;8838;50.144;8.176;2023-03-01T14:50:25;14.20;;;8.37;;
17441;SDS011;8838;50.144;8.176;2023-03-01T14:52:54;13.17;;;8.57;;
17441;SDS011;8838;50.144;8.176;2023-03-01T14:55:25;18.87;;;9.77;;
17441;SDS011;8838;50.144;8.176;2023-03-01T14:57:54;14.07;;;8.67;;
17441;SDS011;8838;50.144;8.176;2023-03-01T15:00:24;13.37;;;8.73;;
17441;SDS011;8838;50.144;8.176;2023-03-01T15:02:54;12.40;;;8.50;;
17441;SDS011;8838;50.144;8.176;2023-03-01T15:05:24;17.17;;;8.77;;
17441;SDS011;8838;50.144;8.176;2023-03-01T15:07:55;18.13;;;9.27;;
17441;SDS011;8838;50.144;8.176;2023-03-01T15:10:24;17.20;;;10.70;;
17441;SDS011;8838;50.144;8.176;2023-03-01T15:12:52;14.57;;;8.90;;
17441;SDS011;8838;50.144;8.176;2023-03-01T15:18:13;16.50;;;10.37;;
17441;SDS011;8838;50.144;8.176;2023-03-01T15:20:45;19.23;;;11.37;;
17441;SDS011;8838;50.144;8.176;2023-03-01T15:23:18;29.63;;;14.60;;